Hestia — WDE7275 — position and weather

sailwx.info

Track history (hours):
 
Tides and Currents Weather Stations Pressure Air Temp Water Temp Dewpoint Dewpoint Depression Visibility Wind Speed Wind Dir Waves Ship Positions

Hestia

Owner: LEBOWITZ, JOHN W, SEQUIM, WA. More information available from US FCC via Universal Licensing System and Coast Guard Vessel Documentation Center.

Last reported at 2013-Aug-07 18:18 UTC. Time now 2014-Oct-01 06:13 UTC.
Position N 49°54' W 124°39'.
Warning: this ship's position is years out of date!

Length 16 m.

Type: Pleasure craft. MMSI: 367391220.

Date/timePositionNaut miles runAvg speedWind from/ knotsBaromVisibWave heightAir tempDewpointWater temp
2013-Aug-07 18:18N 49°54' W 124°39'6 7.3
2013-Aug-07 17:31N 49°49' W 124°34'6 6.6
2013-Aug-07 16:33N 49°46' W 124°25'7 6.8
2013-Aug-07 15:32N 49°44' W 124°16'2 0.1
2013-Aug-06 19:25N 49°44' W 124°13'6 6.1
2013-Aug-06 18:30N 49°38' W 124°12'7 7.5
2013-Aug-06 17:31N 49°32' W 124°07'7 7.3
2013-Aug-06 16:33N 49°25' W 124°02'7 7.0
2013-Aug-06 15:33N 49°18' W 123°58'7 6.6
2013-Aug-06 14:33N 49°12' W 123°57'2 0.0
2013-Aug-04 16:33N 49°10' W 123°56'6 4.7
2013-Aug-04 15:23N 49°08' W 123°48'4 4.7
2013-Aug-04 14:32N 49°04' W 123°45'6 0.9
2013-Aug-04 07:16N 48°59' W 123°41'0 0.0
2013-Aug-04 06:16N 48°59' W 123°41'0 0.0
2013-Aug-04 04:10N 48°59' W 123°41'1 0.2
2013-Aug-03 21:04N 48°57' W 123°41'1 1.6
2013-Aug-03 20:33N 48°57' W 123°40'6 5.4
2013-Aug-03 19:29N 48°55' W 123°31'7 7.5
2013-Aug-03 18:31N 48°49' W 123°24'8 7.2
2013-Aug-03 17:25N 48°44' W 123°15'3 2.6
2013-Aug-03 16:11N 48°41' W 123°14'5 7.7
2013-Aug-03 15:33N 48°37' W 123°10'1 0.0
2013-Aug-03 00:06N 48°37' W 123°10'0 0.0
2013-Aug-02 23:21N 48°37' W 123°10'1 0.4
2013-Aug-02 21:32N 48°36' W 123°10'8 8.0
2013-Aug-02 20:33N 48°28' W 123°07'8 7.7
2013-Aug-02 19:32N 48°23' W 122°58'29 7.2
2013-Aug-02 15:32N 47°59' W 122°36'8 8.4
2013-Aug-02 14:33N 47°53' W 122°28'5 5.2
2013-Aug-02 13:33N 47°49' W 122°23'0 0.0
2013-Aug-02 03:23N 47°49' W 122°23'0 0.0
2013-Aug-02 02:32N 47°49' W 122°23'  
Track history (hours):
 
Tides and Currents Weather Stations Pressure Air Temp Water Temp Dewpoint Dewpoint Depression Visibility Wind Speed Wind Dir Waves Ship Positions

Hestia

Owner: LEBOWITZ, JOHN W, SEQUIM, WA. More information available from US FCC via Universal Licensing System and Coast Guard Vessel Documentation Center.

Last reported at 2013-Aug-07 18:18 UTC. Time now 2014-Oct-01 06:13 UTC.
Position N 49°54' W 124°39'.
Warning: this ship's position is years out of date!

Length 16 m.

Type: Pleasure craft. MMSI: 367391220.

Date/timePositionNaut miles runAvg speedWind from/ knotsBaromVisibWave heightAir tempDewpointWater temp
2013-Aug-07 18:18N 49°54' W 124°39'6 7.3
2013-Aug-07 17:31N 49°49' W 124°34'6 6.6
2013-Aug-07 16:33N 49°46' W 124°25'7 6.8
2013-Aug-07 15:32N 49°44' W 124°16'2 0.1
2013-Aug-06 19:25N 49°44' W 124°13'6 6.1
2013-Aug-06 18:30N 49°38' W 124°12'7 7.5
2013-Aug-06 17:31N 49°32' W 124°07'7 7.3
2013-Aug-06 16:33N 49°25' W 124°02'7 7.0
2013-Aug-06 15:33N 49°18' W 123°58'7 6.6
2013-Aug-06 14:33N 49°12' W 123°57'2 0.0
2013-Aug-04 16:33N 49°10' W 123°56'6 4.7
2013-Aug-04 15:23N 49°08' W 123°48'4 4.7
2013-Aug-04 14:32N 49°04' W 123°45'6 0.9
2013-Aug-04 07:16N 48°59' W 123°41'0 0.0
2013-Aug-04 06:16N 48°59' W 123°41'0 0.0
2013-Aug-04 04:10N 48°59' W 123°41'1 0.2
2013-Aug-03 21:04N 48°57' W 123°41'1 1.6
2013-Aug-03 20:33N 48°57' W 123°40'6 5.4
2013-Aug-03 19:29N 48°55' W 123°31'7 7.5
2013-Aug-03 18:31N 48°49' W 123°24'8 7.2
2013-Aug-03 17:25N 48°44' W 123°15'3 2.6
2013-Aug-03 16:11N 48°41' W 123°14'5 7.7
2013-Aug-03 15:33N 48°37' W 123°10'1 0.0
2013-Aug-03 00:06N 48°37' W 123°10'0 0.0
2013-Aug-02 23:21N 48°37' W 123°10'1 0.4
2013-Aug-02 21:32N 48°36' W 123°10'8 8.0
2013-Aug-02 20:33N 48°28' W 123°07'8 7.7
2013-Aug-02 19:32N 48°23' W 122°58'29 7.2
2013-Aug-02 15:32N 47°59' W 122°36'8 8.4
2013-Aug-02 14:33N 47°53' W 122°28'5 5.2
2013-Aug-02 13:33N 47°49' W 122°23'0 0.0
2013-Aug-02 03:23N 47°49' W 122°23'0 0.0
2013-Aug-02 02:32N 47°49' W 122°23'  

Dump ship's entire track history